sensor_id;sensor_type;location;lat;lon;timestamp;P1;durP1;ratioP1;P2;durP2;ratioP2
14984;SDS011;7588;62.368;25.902;2023-02-15T00:01:26;6.50;;;5.17;;
14984;SDS011;7588;62.368;25.902;2023-02-15T00:03:51;7.47;;;3.90;;
14984;SDS011;7588;62.368;25.902;2023-02-15T00:06:17;9.97;;;5.00;;
14984;SDS011;7588;62.368;25.902;2023-02-15T00:08:43;6.77;;;4.50;;
14984;SDS011;7588;62.368;25.902;2023-02-15T00:11:10;6.30;;;4.20;;
14984;SDS011;7588;62.368;25.902;2023-02-15T00:13:40;7.27;;;5.03;;
14984;SDS011;7588;62.368;25.902;2023-02-15T00:16:07;8.30;;;5.00;;
14984;SDS011;7588;62.368;25.902;2023-02-15T00:18:38;7.83;;;4.30;;
14984;SDS011;7588;62.368;25.902;2023-02-15T00:21:05;11.40;;;4.97;;
14984;SDS011;7588;62.368;25.902;2023-02-15T00:23:32;6.23;;;4.73;;
14984;SDS011;7588;62.368;25.902;2023-02-15T00:26:08;10.47;;;5.23;;
14984;SDS011;7588;62.368;25.902;2023-02-15T00:28:35;14.43;;;5.00;;
14984;SDS011;7588;62.368;25.902;2023-02-15T00:31:08;14.00;;;5.73;;
14984;SDS011;7588;62.368;25.902;2023-02-15T00:33:35;16.70;;;5.67;;
14984;SDS011;7588;62.368;25.902;2023-02-15T00:36:03;17.70;;;5.47;;
14984;SDS011;7588;62.368;25.902;2023-02-15T00:38:30;16.53;;;6.30;;
14984;SDS011;7588;62.368;25.902;2023-02-15T00:40:57;17.33;;;6.17;;
14984;SDS011;7588;62.368;25.902;2023-02-15T00:43:25;17.73;;;6.23;;
14984;SDS011;7588;62.368;25.902;2023-02-15T00:45:52;19.87;;;6.90;;
14984;SDS011;7588;62.368;25.902;2023-02-15T00:48:18;20.90;;;7.80;;
14984;SDS011;7588;62.368;25.902;2023-02-15T00:50:45;23.37;;;6.40;;
14984;SDS011;7588;62.368;25.902;2023-02-15T00:53:11;21.47;;;6.50;;
14984;SDS011;7588;62.368;25.902;2023-02-15T00:55:37;18.37;;;6.73;;
14984;SDS011;7588;62.368;25.902;2023-02-15T00:58:06;26.70;;;7.60;;
14984;SDS011;7588;62.368;25.902;2023-02-15T01:00:33;22.77;;;7.37;;
14984;SDS011;7588;62.368;25.902;2023-02-15T01:02:59;27.93;;;8.33;;
14984;SDS011;7588;62.368;25.902;2023-02-15T01:05:25;18.33;;;7.27;;
14984;SDS011;7588;62.368;25.902;2023-02-15T01:07:50;30.20;;;8.77;;
14984;SDS011;7588;62.368;25.902;2023-02-15T01:10:16;24.97;;;7.33;;
14984;SDS011;7588;62.368;25.902;2023-02-15T01:12:42;31.20;;;7.80;;
14984;SDS011;7588;62.368;25.902;2023-02-15T01:15:08;30.57;;;8.97;;
14984;SDS011;7588;62.368;25.902;2023-02-15T01:17:34;30.33;;;8.43;;
14984;SDS011;7588;62.368;25.902;2023-02-15T01:20:00;18.20;;;7.23;;
14984;SDS011;7588;62.368;25.902;2023-02-15T01:22:29;27.67;;;8.37;;
14984;SDS011;7588;62.368;25.902;2023-02-15T01:24:55;21.17;;;7.80;;
14984;SDS011;7588;62.368;25.902;2023-02-15T01:27:21;15.67;;;6.30;;
14984;SDS011;7588;62.368;25.902;2023-02-15T01:29:47;11.50;;;5.97;;
14984;SDS011;7588;62.368;25.902;2023-02-15T01:32:12;13.43;;;5.83;;
14984;SDS011;7588;62.368;25.902;2023-02-15T01:34:38;9.63;;;5.57;;
14984;SDS011;7588;62.368;25.902;2023-02-15T01:37:04;6.97;;;5.13;;
14984;SDS011;7588;62.368;25.902;2023-02-15T01:39:30;8.50;;;4.80;;
14984;SDS011;7588;62.368;25.902;2023-02-15T01:41:55;10.33;;;6.23;;
14984;SDS011;7588;62.368;25.902;2023-02-15T01:47:21;29.77;;;8.03;;
14984;SDS011;7588;62.368;25.902;2023-02-15T01:50:39;23.87;;;7.20;;
14984;SDS011;7588;62.368;25.902;2023-02-15T01:52:46;35.67;;;8.77;;
14984;SDS011;7588;62.368;25.902;2023-02-15T01:55:24;29.23;;;8.37;;
14984;SDS011;7588;62.368;25.902;2023-02-15T01:57:53;29.83;;;9.87;;
14984;SDS011;7588;62.368;25.902;2023-02-15T02:00:19;24.00;;;8.10;;
14984;SDS011;7588;62.368;25.902;2023-02-15T02:02:50;15.93;;;7.10;;
14984;SDS011;7588;62.368;25.902;2023-02-15T02:05:19;24.13;;;8.73;;
14984;SDS011;7588;62.368;25.902;2023-02-15T02:07:45;24.07;;;7.20;;
14984;SDS011;7588;62.368;25.902;2023-02-15T02:10:14;14.13;;;6.57;;
14984;SDS011;7588;62.368;25.902;2023-02-15T02:12:42;13.63;;;5.80;;
14984;SDS011;7588;62.368;25.902;2023-02-15T02:15:10;10.27;;;6.17;;
14984;SDS011;7588;62.368;25.902;2023-02-15T02:17:42;11.20;;;6.53;;
14984;SDS011;7588;62.368;25.902;2023-02-15T02:29:09;12.97;;;6.17;;
14984;SDS011;7588;62.368;25.902;2023-02-15T02:34:29;11.97;;;6.13;;
14984;SDS011;7588;62.368;25.902;2023-02-15T02:37:09;15.13;;;6.30;;
14984;SDS011;7588;62.368;25.902;2023-02-15T02:42:22;17.73;;;7.20;;
14984;SDS011;7588;62.368;25.902;2023-02-15T02:44:49;14.97;;;6.57;;
14984;SDS011;7588;62.368;25.902;2023-02-15T02:47:59;9.30;;;6.37;;
14984;SDS011;7588;62.368;25.902;2023-02-15T02:50:26;13.77;;;6.23;;
14984;SDS011;7588;62.368;25.902;2023-02-15T02:52:55;17.50;;;6.97;;
14984;SDS011;7588;62.368;25.902;2023-02-15T02:55:28;14.93;;;6.27;;
14984;SDS011;7588;62.368;25.902;2023-02-15T03:00:37;16.63;;;6.87;;
14984;SDS011;7588;62.368;25.902;2023-02-15T03:03:09;14.80;;;6.97;;
14984;SDS011;7588;62.368;25.902;2023-02-15T03:05:41;12.40;;;6.60;;
14984;SDS011;7588;62.368;25.902;2023-02-15T03:08:11;11.67;;;5.83;;
14984;SDS011;7588;62.368;25.902;2023-02-15T03:10:46;16.10;;;6.20;;
14984;SDS011;7588;62.368;25.902;2023-02-15T03:13:14;9.83;;;5.73;;
14984;SDS011;7588;62.368;25.902;2023-02-15T03:15:41;8.60;;;6.70;;
14984;SDS011;7588;62.368;25.902;2023-02-15T03:18:38;14.17;;;6.37;;
14984;SDS011;7588;62.368;25.902;2023-02-15T03:21:19;14.43;;;6.37;;
14984;SDS011;7588;62.368;25.902;2023-02-15T03:23:52;13.03;;;6.97;;
14984;SDS011;7588;62.368;25.902;2023-02-15T03:26:21;13.30;;;6.40;;
14984;SDS011;7588;62.368;25.902;2023-02-15T03:28:49;15.90;;;6.57;;
14984;SDS011;7588;62.368;25.902;2023-02-15T03:31:19;14.00;;;6.83;;
14984;SDS011;7588;62.368;25.902;2023-02-15T03:33:49;15.60;;;7.10;;
14984;SDS011;7588;62.368;25.902;2023-02-15T03:36:22;14.43;;;7.07;;
14984;SDS011;7588;62.368;25.902;2023-02-15T03:45:09;11.10;;;6.70;;
14984;SDS011;7588;62.368;25.902;2023-02-15T03:47:40;10.10;;;5.93;;
14984;SDS011;7588;62.368;25.902;2023-02-15T03:50:25;14.60;;;6.60;;
14984;SDS011;7588;62.368;25.902;2023-02-15T03:53:15;10.83;;;6.43;;
14984;SDS011;7588;62.368;25.902;2023-02-15T03:55:48;12.83;;;5.47;;
14984;SDS011;7588;62.368;25.902;2023-02-15T03:58:18;13.33;;;6.67;;
14984;SDS011;7588;62.368;25.902;2023-02-15T04:01:10;12.93;;;6.73;;
14984;SDS011;7588;62.368;25.902;2023-02-15T04:04:13;15.47;;;6.07;;
14984;SDS011;7588;62.368;25.902;2023-02-15T04:06:44;14.13;;;6.20;;
14984;SDS011;7588;62.368;25.902;2023-02-15T04:09:10;16.10;;;6.97;;
14984;SDS011;7588;62.368;25.902;2023-02-15T04:11:55;11.03;;;5.90;;
14984;SDS011;7588;62.368;25.902;2023-02-15T04:14:20;9.13;;;5.27;;
14984;SDS011;7588;62.368;25.902;2023-02-15T04:17:05;8.77;;;5.37;;
14984;SDS011;7588;62.368;25.902;2023-02-15T04:19:32;9.07;;;5.77;;
14984;SDS011;7588;62.368;25.902;2023-02-15T04:22:16;8.83;;;5.67;;
14984;SDS011;7588;62.368;25.902;2023-02-15T04:25:00;9.00;;;5.97;;
14984;SDS011;7588;62.368;25.902;2023-02-15T04:27:38;9.13;;;5.80;;
14984;SDS011;7588;62.368;25.902;2023-02-15T04:30:05;11.57;;;6.17;;
14984;SDS011;7588;62.368;25.902;2023-02-15T04:32:32;11.67;;;5.10;;
14984;SDS011;7588;62.368;25.902;2023-02-15T04:34:59;9.80;;;6.00;;
14984;SDS011;7588;62.368;25.902;2023-02-15T04:37:25;9.07;;;6.13;;
14984;SDS011;7588;62.368;25.902;2023-02-15T04:39:51;13.03;;;6.33;;
14984;SDS011;7588;62.368;25.902;2023-02-15T04:42:16;9.70;;;5.90;;
14984;SDS011;7588;62.368;25.902;2023-02-15T04:44:42;9.70;;;5.70;;
14984;SDS011;7588;62.368;25.902;2023-02-15T04:47:08;9.70;;;5.57;;
14984;SDS011;7588;62.368;25.902;2023-02-15T04:49:34;7.83;;;5.83;;
14984;SDS011;7588;62.368;25.902;2023-02-15T04:52:00;8.83;;;5.30;;
14984;SDS011;7588;62.368;25.902;2023-02-15T04:54:25;8.60;;;5.43;;
14984;SDS011;7588;62.368;25.902;2023-02-15T04:56:51;9.17;;;5.17;;
14984;SDS011;7588;62.368;25.902;2023-02-15T04:59:17;9.63;;;6.23;;
14984;SDS011;7588;62.368;25.902;2023-02-15T05:01:43;9.07;;;6.50;;
14984;SDS011;7588;62.368;25.902;2023-02-15T05:04:08;9.23;;;5.50;;
14984;SDS011;7588;62.368;25.902;2023-02-15T05:06:34;8.33;;;5.33;;
14984;SDS011;7588;62.368;25.902;2023-02-15T05:09:00;7.57;;;5.40;;
14984;SDS011;7588;62.368;25.902;2023-02-15T05:11:26;8.33;;;5.07;;
14984;SDS011;7588;62.368;25.902;2023-02-15T05:13:52;7.40;;;5.00;;
14984;SDS011;7588;62.368;25.902;2023-02-15T05:16:18;10.70;;;5.57;;
14984;SDS011;7588;62.368;25.902;2023-02-15T05:18:44;7.07;;;5.20;;
14984;SDS011;7588;62.368;25.902;2023-02-15T05:21:09;8.17;;;5.20;;
14984;SDS011;7588;62.368;25.902;2023-02-15T05:23:35;9.83;;;5.27;;
14984;SDS011;7588;62.368;25.902;2023-02-15T05:26:01;11.13;;;5.80;;
14984;SDS011;7588;62.368;25.902;2023-02-15T05:28:46;8.60;;;6.13;;
14984;SDS011;7588;62.368;25.902;2023-02-15T05:31:12;8.13;;;5.10;;
14984;SDS011;7588;62.368;25.902;2023-02-15T05:33:39;9.93;;;5.53;;
14984;SDS011;7588;62.368;25.902;2023-02-15T05:36:06;6.57;;;5.10;;
14984;SDS011;7588;62.368;25.902;2023-02-15T05:38:32;8.37;;;5.37;;
14984;SDS011;7588;62.368;25.902;2023-02-15T05:40:59;9.03;;;5.67;;
14984;SDS011;7588;62.368;25.902;2023-02-15T05:43:28;12.70;;;5.63;;
14984;SDS011;7588;62.368;25.902;2023-02-15T05:45:54;10.43;;;6.77;;
14984;SDS011;7588;62.368;25.902;2023-02-15T05:48:20;9.53;;;5.53;;
14984;SDS011;7588;62.368;25.902;2023-02-15T05:50:59;7.63;;;4.90;;
14984;SDS011;7588;62.368;25.902;2023-02-15T05:53:26;8.07;;;5.87;;
14984;SDS011;7588;62.368;25.902;2023-02-15T05:55:53;11.90;;;7.07;;
14984;SDS011;7588;62.368;25.902;2023-02-15T05:58:23;9.80;;;7.17;;
14984;SDS011;7588;62.368;25.902;2023-02-15T06:00:50;10.23;;;6.03;;
14984;SDS011;7588;62.368;25.902;2023-02-15T06:03:16;11.67;;;7.90;;
14984;SDS011;7588;62.368;25.902;2023-02-15T06:05:42;10.83;;;6.13;;
14984;SDS011;7588;62.368;25.902;2023-02-15T06:08:08;10.00;;;7.20;;
14984;SDS011;7588;62.368;25.902;2023-02-15T06:10:33;13.10;;;6.27;;
14984;SDS011;7588;62.368;25.902;2023-02-15T06:12:59;9.57;;;5.87;;
14984;SDS011;7588;62.368;25.902;2023-02-15T06:15:25;9.87;;;6.40;;
14984;SDS011;7588;62.368;25.902;2023-02-15T06:17:51;8.73;;;6.53;;
14984;SDS011;7588;62.368;25.902;2023-02-15T06:20:16;10.50;;;6.63;;
14984;SDS011;7588;62.368;25.902;2023-02-15T06:22:42;9.63;;;6.57;;
14984;SDS011;7588;62.368;25.902;2023-02-15T06:25:08;10.27;;;7.23;;
14984;SDS011;7588;62.368;25.902;2023-02-15T06:27:36;10.47;;;6.77;;
14984;SDS011;7588;62.368;25.902;2023-02-15T06:30:03;9.90;;;6.50;;
14984;SDS011;7588;62.368;25.902;2023-02-15T06:32:31;10.43;;;6.30;;
14984;SDS011;7588;62.368;25.902;2023-02-15T06:34:57;10.50;;;6.13;;
14984;SDS011;7588;62.368;25.902;2023-02-15T06:37:22;7.03;;;5.87;;
14984;SDS011;7588;62.368;25.902;2023-02-15T06:39:48;10.47;;;6.80;;
14984;SDS011;7588;62.368;25.902;2023-02-15T06:42:14;9.07;;;6.27;;
14984;SDS011;7588;62.368;25.902;2023-02-15T06:44:39;12.27;;;6.30;;
14984;SDS011;7588;62.368;25.902;2023-02-15T06:47:05;8.80;;;6.03;;
14984;SDS011;7588;62.368;25.902;2023-02-15T06:49:31;9.97;;;5.77;;
14984;SDS011;7588;62.368;25.902;2023-02-15T06:51:57;9.73;;;6.37;;
14984;SDS011;7588;62.368;25.902;2023-02-15T06:54:22;9.97;;;5.73;;
14984;SDS011;7588;62.368;25.902;2023-02-15T06:56:48;9.53;;;6.10;;
14984;SDS011;7588;62.368;25.902;2023-02-15T06:59:14;10.73;;;5.93;;
14984;SDS011;7588;62.368;25.902;2023-02-15T07:01:39;8.90;;;6.33;;
14984;SDS011;7588;62.368;25.902;2023-02-15T07:04:08;10.63;;;7.33;;
14984;SDS011;7588;62.368;25.902;2023-02-15T07:06:34;8.87;;;5.90;;
14984;SDS011;7588;62.368;25.902;2023-02-15T07:09:00;8.17;;;6.23;;
14984;SDS011;7588;62.368;25.902;2023-02-15T07:11:26;10.20;;;5.87;;
14984;SDS011;7588;62.368;25.902;2023-02-15T07:14:10;8.77;;;6.30;;
14984;SDS011;7588;62.368;25.902;2023-02-15T07:16:35;9.93;;;6.03;;
14984;SDS011;7588;62.368;25.902;2023-02-15T07:19:01;10.00;;;5.93;;
14984;SDS011;7588;62.368;25.902;2023-02-15T07:21:27;7.80;;;6.30;;
14984;SDS011;7588;62.368;25.902;2023-02-15T07:23:55;6.40;;;5.33;;
14984;SDS011;7588;62.368;25.902;2023-02-15T07:26:22;7.70;;;6.30;;
14984;SDS011;7588;62.368;25.902;2023-02-15T07:28:48;8.03;;;5.57;;
14984;SDS011;7588;62.368;25.902;2023-02-15T07:31:14;7.23;;;5.80;;
14984;SDS011;7588;62.368;25.902;2023-02-15T07:33:40;7.27;;;6.13;;
14984;SDS011;7588;62.368;25.902;2023-02-15T07:36:06;7.80;;;5.47;;
14984;SDS011;7588;62.368;25.902;2023-02-15T07:38:35;7.47;;;6.00;;
14984;SDS011;7588;62.368;25.902;2023-02-15T07:41:03;7.47;;;5.83;;
14984;SDS011;7588;62.368;25.902;2023-02-15T07:43:32;9.70;;;6.20;;
14984;SDS011;7588;62.368;25.902;2023-02-15T07:45:59;10.60;;;6.10;;
14984;SDS011;7588;62.368;25.902;2023-02-15T07:48:30;9.20;;;6.30;;
14984;SDS011;7588;62.368;25.902;2023-02-15T07:51:00;8.83;;;6.37;;
14984;SDS011;7588;62.368;25.902;2023-02-15T07:53:30;9.53;;;6.63;;
14984;SDS011;7588;62.368;25.902;2023-02-15T07:56:04;7.63;;;5.63;;
14984;SDS011;7588;62.368;25.902;2023-02-15T07:58:31;9.47;;;6.30;;
14984;SDS011;7588;62.368;25.902;2023-02-15T08:01:16;7.90;;;6.30;;
14984;SDS011;7588;62.368;25.902;2023-02-15T08:04:01;8.53;;;5.90;;
14984;SDS011;7588;62.368;25.902;2023-02-15T08:06:30;7.17;;;5.67;;
14984;SDS011;7588;62.368;25.902;2023-02-15T08:08:57;7.83;;;5.70;;
14984;SDS011;7588;62.368;25.902;2023-02-15T08:11:24;8.90;;;6.20;;
14984;SDS011;7588;62.368;25.902;2023-02-15T08:19:22;9.23;;;6.03;;
14984;SDS011;7588;62.368;25.902;2023-02-15T08:21:55;7.23;;;5.90;;
14984;SDS011;7588;62.368;25.902;2023-02-15T08:24:22;8.10;;;5.73;;
14984;SDS011;7588;62.368;25.902;2023-02-15T08:26:49;7.37;;;5.60;;
14984;SDS011;7588;62.368;25.902;2023-02-15T08:29:16;5.67;;;5.03;;
14984;SDS011;7588;62.368;25.902;2023-02-15T08:31:44;6.97;;;5.00;;
14984;SDS011;7588;62.368;25.902;2023-02-15T08:34:11;5.97;;;5.33;;
14984;SDS011;7588;62.368;25.902;2023-02-15T08:36:40;5.83;;;5.23;;
14984;SDS011;7588;62.368;25.902;2023-02-15T08:39:06;8.20;;;5.50;;
14984;SDS011;7588;62.368;25.902;2023-02-15T08:41:33;7.20;;;5.57;;
14984;SDS011;7588;62.368;25.902;2023-02-15T08:44:01;5.97;;;5.30;;
14984;SDS011;7588;62.368;25.902;2023-02-15T08:46:30;5.30;;;4.80;;
14984;SDS011;7588;62.368;25.902;2023-02-15T08:48:58;4.97;;;4.47;;
14984;SDS011;7588;62.368;25.902;2023-02-15T08:51:25;5.90;;;4.60;;
14984;SDS011;7588;62.368;25.902;2023-02-15T08:53:54;5.53;;;4.97;;
14984;SDS011;7588;62.368;25.902;2023-02-15T08:56:23;5.50;;;4.80;;
14984;SDS011;7588;62.368;25.902;2023-02-15T08:58:53;6.33;;;5.07;;
14984;SDS011;7588;62.368;25.902;2023-02-15T09:01:23;7.17;;;4.90;;
14984;SDS011;7588;62.368;25.902;2023-02-15T09:03:51;5.30;;;4.80;;
14984;SDS011;7588;62.368;25.902;2023-02-15T09:06:21;5.80;;;5.20;;
14984;SDS011;7588;62.368;25.902;2023-02-15T09:08:48;5.23;;;4.40;;
14984;SDS011;7588;62.368;25.902;2023-02-15T09:11:18;5.30;;;4.53;;
14984;SDS011;7588;62.368;25.902;2023-02-15T09:13:49;6.07;;;4.73;;
14984;SDS011;7588;62.368;25.902;2023-02-15T09:16:24;5.87;;;5.30;;
14984;SDS011;7588;62.368;25.902;2023-02-15T09:18:51;5.37;;;4.43;;
14984;SDS011;7588;62.368;25.902;2023-02-15T09:21:21;6.47;;;4.97;;
14984;SDS011;7588;62.368;25.902;2023-02-15T09:23:49;6.17;;;4.87;;
14984;SDS011;7588;62.368;25.902;2023-02-15T09:26:18;5.03;;;4.20;;
14984;SDS011;7588;62.368;25.902;2023-02-15T09:28:45;5.53;;;4.80;;
14984;SDS011;7588;62.368;25.902;2023-02-15T09:31:13;5.17;;;4.67;;
14984;SDS011;7588;62.368;25.902;2023-02-15T09:33:41;6.20;;;4.70;;
14984;SDS011;7588;62.368;25.902;2023-02-15T09:36:24;8.13;;;4.87;;
14984;SDS011;7588;62.368;25.902;2023-02-15T09:38:59;4.83;;;4.37;;
14984;SDS011;7588;62.368;25.902;2023-02-15T09:50:12;5.07;;;4.57;;
14984;SDS011;7588;62.368;25.902;2023-02-15T09:55:42;5.43;;;4.90;;
14984;SDS011;7588;62.368;25.902;2023-02-15T10:00:57;4.87;;;4.47;;
14984;SDS011;7588;62.368;25.902;2023-02-15T10:06:23;5.07;;;4.50;;
14984;SDS011;7588;62.368;25.902;2023-02-15T10:22:50;5.10;;;4.60;;
14984;SDS011;7588;62.368;25.902;2023-02-15T10:28:17;4.93;;;4.10;;
14984;SDS011;7588;62.368;25.902;2023-02-15T10:30:49;5.00;;;4.00;;
14984;SDS011;7588;62.368;25.902;2023-02-15T10:33:41;4.43;;;4.13;;
14984;SDS011;7588;62.368;25.902;2023-02-15T10:39:05;4.20;;;3.73;;
14984;SDS011;7588;62.368;25.902;2023-02-15T10:41:47;4.80;;;3.53;;
14984;SDS011;7588;62.368;25.902;2023-02-15T10:52:18;7.90;;;3.80;;
14984;SDS011;7588;62.368;25.902;2023-02-15T11:00:23;4.43;;;3.23;;
14984;SDS011;7588;62.368;25.902;2023-02-15T11:02:59;3.73;;;3.03;;
14984;SDS011;7588;62.368;25.902;2023-02-15T11:08:22;5.47;;;3.10;;
14984;SDS011;7588;62.368;25.902;2023-02-15T11:11:04;4.63;;;3.30;;
14984;SDS011;7588;62.368;25.902;2023-02-15T11:13:34;3.27;;;2.97;;
14984;SDS011;7588;62.368;25.902;2023-02-15T11:16:16;3.30;;;3.00;;
14984;SDS011;7588;62.368;25.902;2023-02-15T11:18:59;3.17;;;2.87;;
14984;SDS011;7588;62.368;25.902;2023-02-15T11:21:39;3.30;;;3.00;;
14984;SDS011;7588;62.368;25.902;2023-02-15T11:24:10;3.10;;;2.87;;
14984;SDS011;7588;62.368;25.902;2023-02-15T11:26:43;4.53;;;2.93;;
14984;SDS011;7588;62.368;25.902;2023-02-15T11:32:03;2.77;;;2.50;;
14984;SDS011;7588;62.368;25.902;2023-02-15T11:35:01;3.70;;;2.70;;
14984;SDS011;7588;62.368;25.902;2023-02-15T11:40:32;2.70;;;2.50;;
14984;SDS011;7588;62.368;25.902;2023-02-15T11:43:06;2.83;;;2.40;;
14984;SDS011;7588;62.368;25.902;2023-02-15T11:45:42;2.70;;;2.50;;
14984;SDS011;7588;62.368;25.902;2023-02-15T11:48:11;3.10;;;2.70;;
14984;SDS011;7588;62.368;25.902;2023-02-15T11:50:38;3.00;;;2.63;;
14984;SDS011;7588;62.368;25.902;2023-02-15T11:53:18;3.60;;;2.70;;
14984;SDS011;7588;62.368;25.902;2023-02-15T11:55:47;2.93;;;2.40;;
14984;SDS011;7588;62.368;25.902;2023-02-15T12:00:51;2.77;;;2.20;;
14984;SDS011;7588;62.368;25.902;2023-02-15T12:03:23;2.87;;;2.60;;
14984;SDS011;7588;62.368;25.902;2023-02-15T12:06:13;5.27;;;2.40;;
14984;SDS011;7588;62.368;25.902;2023-02-15T12:09:03;5.67;;;2.33;;
14984;SDS011;7588;62.368;25.902;2023-02-15T12:11:37;2.50;;;2.30;;
14984;SDS011;7588;62.368;25.902;2023-02-15T12:14:06;3.37;;;2.93;;
14984;SDS011;7588;62.368;25.902;2023-02-15T12:16:41;2.60;;;2.40;;
14984;SDS011;7588;62.368;25.902;2023-02-15T12:22:32;2.93;;;2.60;;
14984;SDS011;7588;62.368;25.902;2023-02-15T12:25:02;2.47;;;2.27;;
14984;SDS011;7588;62.368;25.902;2023-02-15T12:27:44;2.10;;;1.97;;
14984;SDS011;7588;62.368;25.902;2023-02-15T12:32:59;2.20;;;2.10;;
14984;SDS011;7588;62.368;25.902;2023-02-15T12:35:34;2.63;;;2.23;;
14984;SDS011;7588;62.368;25.902;2023-02-15T12:40:30;2.43;;;2.23;;
14984;SDS011;7588;62.368;25.902;2023-02-15T12:42:58;3.97;;;2.00;;
14984;SDS011;7588;62.368;25.902;2023-02-15T12:45:31;3.70;;;2.10;;
14984;SDS011;7588;62.368;25.902;2023-02-15T12:48:17;3.07;;;2.67;;
14984;SDS011;7588;62.368;25.902;2023-02-15T12:50:49;3.10;;;2.30;;
14984;SDS011;7588;62.368;25.902;2023-02-15T12:53:17;2.80;;;2.60;;
14984;SDS011;7588;62.368;25.902;2023-02-15T12:55:55;2.60;;;2.10;;
14984;SDS011;7588;62.368;25.902;2023-02-15T12:58:23;2.63;;;2.27;;
14984;SDS011;7588;62.368;25.902;2023-02-15T13:01:23;2.10;;;2.00;;
14984;SDS011;7588;62.368;25.902;2023-02-15T13:06:20;2.07;;;1.97;;
14984;SDS011;7588;62.368;25.902;2023-02-15T13:08:51;1.73;;;1.63;;
14984;SDS011;7588;62.368;25.902;2023-02-15T13:11:25;3.60;;;1.80;;
14984;SDS011;7588;62.368;25.902;2023-02-15T13:16:27;2.07;;;1.90;;
14984;SDS011;7588;62.368;25.902;2023-02-15T13:18:56;2.10;;;1.90;;
14984;SDS011;7588;62.368;25.902;2023-02-15T13:21:24;2.67;;;1.70;;
14984;SDS011;7588;62.368;25.902;2023-02-15T13:24:01;3.03;;;1.63;;
14984;SDS011;7588;62.368;25.902;2023-02-15T13:26:31;1.70;;;1.60;;
14984;SDS011;7588;62.368;25.902;2023-02-15T13:29:00;2.57;;;1.77;;
14984;SDS011;7588;62.368;25.902;2023-02-15T13:31:33;3.30;;;1.53;;
14984;SDS011;7588;62.368;25.902;2023-02-15T13:41:50;2.10;;;1.80;;
14984;SDS011;7588;62.368;25.902;2023-02-15T13:44:53;5.37;;;2.03;;
14984;SDS011;7588;62.368;25.902;2023-02-15T13:47:25;2.20;;;2.00;;
14984;SDS011;7588;62.368;25.902;2023-02-15T13:52:38;2.83;;;2.00;;
14984;SDS011;7588;62.368;25.902;2023-02-15T13:55:22;4.97;;;3.77;;
14984;SDS011;7588;62.368;25.902;2023-02-15T13:58:04;8.20;;;5.57;;
14984;SDS011;7588;62.368;25.902;2023-02-15T14:06:28;11.63;;;7.13;;
14984;SDS011;7588;62.368;25.902;2023-02-15T14:14:44;9.53;;;5.87;;
14984;SDS011;7588;62.368;25.902;2023-02-15T14:22:41;8.60;;;5.70;;
14984;SDS011;7588;62.368;25.902;2023-02-15T14:25:20;8.57;;;6.50;;
14984;SDS011;7588;62.368;25.902;2023-02-15T14:30:37;9.30;;;6.07;;
14984;SDS011;7588;62.368;25.902;2023-02-15T14:33:08;7.40;;;5.97;;
14984;SDS011;7588;62.368;25.902;2023-02-15T14:35:54;7.37;;;5.73;;
14984;SDS011;7588;62.368;25.902;2023-02-15T14:44:13;6.47;;;4.80;;
14984;SDS011;7588;62.368;25.902;2023-02-15T14:46:50;6.37;;;4.93;;
14984;SDS011;7588;62.368;25.902;2023-02-15T14:49:24;5.50;;;5.00;;
14984;SDS011;7588;62.368;25.902;2023-02-15T14:52:11;6.23;;;4.93;;
14984;SDS011;7588;62.368;25.902;2023-02-15T15:04:34;6.23;;;4.30;;
14984;SDS011;7588;62.368;25.902;2023-02-15T15:12:49;4.77;;;3.93;;
14984;SDS011;7588;62.368;25.902;2023-02-15T15:20:38;8.23;;;6.23;;
14984;SDS011;7588;62.368;25.902;2023-02-15T15:25:47;10.70;;;7.20;;
14984;SDS011;7588;62.368;25.902;2023-02-15T15:31:43;10.43;;;7.17;;
14984;SDS011;7588;62.368;25.902;2023-02-15T15:50:33;12.70;;;7.43;;
14984;SDS011;7588;62.368;25.902;2023-02-15T15:53:00;12.37;;;7.40;;
14984;SDS011;7588;62.368;25.902;2023-02-15T15:55:29;9.90;;;7.30;;
14984;SDS011;7588;62.368;25.902;2023-02-15T15:57:59;12.13;;;6.73;;
14984;SDS011;7588;62.368;25.902;2023-02-15T16:03:15;9.13;;;6.97;;
14984;SDS011;7588;62.368;25.902;2023-02-15T16:05:51;9.80;;;6.53;;
14984;SDS011;7588;62.368;25.902;2023-02-15T16:11:24;14.40;;;8.70;;
14984;SDS011;7588;62.368;25.902;2023-02-15T16:13:50;8.57;;;7.13;;
14984;SDS011;7588;62.368;25.902;2023-02-15T16:16:27;8.27;;;7.37;;
14984;SDS011;7588;62.368;25.902;2023-02-15T16:18:54;8.97;;;7.67;;
14984;SDS011;7588;62.368;25.902;2023-02-15T16:21:27;9.67;;;6.63;;
14984;SDS011;7588;62.368;25.902;2023-02-15T16:29:31;12.50;;;9.20;;
14984;SDS011;7588;62.368;25.902;2023-02-15T16:32:06;14.17;;;9.37;;
14984;SDS011;7588;62.368;25.902;2023-02-15T16:37:24;31.47;;;19.30;;
14984;SDS011;7588;62.368;25.902;2023-02-15T16:39:52;30.90;;;17.23;;
14984;SDS011;7588;62.368;25.902;2023-02-15T16:42:19;21.73;;;13.23;;
14984;SDS011;7588;62.368;25.902;2023-02-15T16:44:47;16.57;;;12.47;;
14984;SDS011;7588;62.368;25.902;2023-02-15T16:47:30;24.20;;;16.13;;
14984;SDS011;7588;62.368;25.902;2023-02-15T16:50:01;19.40;;;11.93;;
14984;SDS011;7588;62.368;25.902;2023-02-15T16:52:29;16.63;;;11.70;;
14984;SDS011;7588;62.368;25.902;2023-02-15T16:54:56;20.27;;;12.97;;
14984;SDS011;7588;62.368;25.902;2023-02-15T16:57:30;17.20;;;12.60;;
14984;SDS011;7588;62.368;25.902;2023-02-15T17:00:04;24.73;;;15.57;;
14984;SDS011;7588;62.368;25.902;2023-02-15T17:02:33;30.60;;;17.80;;
14984;SDS011;7588;62.368;25.902;2023-02-15T17:08:27;27.63;;;16.60;;
14984;SDS011;7588;62.368;25.902;2023-02-15T17:10:39;25.47;;;15.83;;
14984;SDS011;7588;62.368;25.902;2023-02-15T17:15:36;29.47;;;16.87;;
14984;SDS011;7588;62.368;25.902;2023-02-15T17:20:43;22.53;;;13.93;;
14984;SDS011;7588;62.368;25.902;2023-02-15T17:23:23;19.57;;;11.37;;
14984;SDS011;7588;62.368;25.902;2023-02-15T17:25:55;22.47;;;13.57;;
14984;SDS011;7588;62.368;25.902;2023-02-15T17:28:23;25.77;;;16.50;;
14984;SDS011;7588;62.368;25.902;2023-02-15T17:30:52;23.50;;;14.97;;
14984;SDS011;7588;62.368;25.902;2023-02-15T17:33:21;23.47;;;13.90;;
14984;SDS011;7588;62.368;25.902;2023-02-15T17:38:29;18.60;;;12.90;;
14984;SDS011;7588;62.368;25.902;2023-02-15T17:40:54;12.30;;;9.13;;
14984;SDS011;7588;62.368;25.902;2023-02-15T17:43:21;15.03;;;8.70;;
14984;SDS011;7588;62.368;25.902;2023-02-15T17:45:47;14.43;;;6.73;;
14984;SDS011;7588;62.368;25.902;2023-02-15T17:48:22;9.43;;;6.87;;
14984;SDS011;7588;62.368;25.902;2023-02-15T17:51:06;10.40;;;6.67;;
14984;SDS011;7588;62.368;25.902;2023-02-15T17:53:37;8.23;;;5.57;;
14984;SDS011;7588;62.368;25.902;2023-02-15T17:56:03;8.27;;;5.57;;
14984;SDS011;7588;62.368;25.902;2023-02-15T17:58:34;8.77;;;6.30;;
14984;SDS011;7588;62.368;25.902;2023-02-15T18:01:02;6.20;;;5.60;;
14984;SDS011;7588;62.368;25.902;2023-02-15T18:03:55;8.07;;;5.37;;
14984;SDS011;7588;62.368;25.902;2023-02-15T18:06:40;10.00;;;5.50;;
14984;SDS011;7588;62.368;25.902;2023-02-15T18:09:25;9.03;;;5.13;;
14984;SDS011;7588;62.368;25.902;2023-02-15T18:14:51;7.17;;;4.83;;
14984;SDS011;7588;62.368;25.902;2023-02-15T18:17:18;6.87;;;5.03;;
14984;SDS011;7588;62.368;25.902;2023-02-15T18:19:51;7.87;;;5.40;;
14984;SDS011;7588;62.368;25.902;2023-02-15T18:22:18;7.87;;;5.10;;
14984;SDS011;7588;62.368;25.902;2023-02-15T18:24:45;10.67;;;5.77;;
14984;SDS011;7588;62.368;25.902;2023-02-15T18:27:13;11.23;;;5.30;;
14984;SDS011;7588;62.368;25.902;2023-02-15T18:29:40;7.83;;;5.50;;
14984;SDS011;7588;62.368;25.902;2023-02-15T18:32:06;8.20;;;5.67;;
14984;SDS011;7588;62.368;25.902;2023-02-15T18:34:40;9.27;;;5.97;;
14984;SDS011;7588;62.368;25.902;2023-02-15T18:37:15;10.63;;;6.77;;